Time;durP1;ratioP1;P1;durP2;ratioP2;P2;SDS_P1;SDS_P2;PMS_P1;PMS_P2;Temp;Humidity;BMP_temperature;BMP_pressure;BME280_temperature;BME280_humidity;BME280_pressure;Samples;Min_cycle;Max_cycle;Signal;HPM_P1;HPM_P2
2021/05/21 00:01:26;;;;;;;1.80;1.50;;;20.90;51.20;;;;;;10538667;28;20207;-14
2021/05/21 00:06:47;;;;;;;2.10;1.50;;;20.80;51.30;;;;;;10540580;28;20192;-15
2021/05/21 00:12:10;;;;;;;2.37;1.70;;;20.80;51.30;;;;;;10540693;28;20215;-13
2021/05/21 00:17:31;;;;;;;1.70;1.60;;;20.90;51.10;;;;;;10531835;28;20642;-16
2021/05/21 00:22:53;;;;;;;2.07;1.67;;;21.00;50.80;;;;;;10538203;28;20223;-13
2021/05/21 00:28:15;;;;;;;2.17;1.57;;;21.00;50.70;;;;;;10538193;28;20199;-16
2021/05/21 00:33:37;;;;;;;1.97;1.60;;;21.00;50.80;;;;;;10537708;28;20565;-13
2021/05/21 00:38:58;;;;;;;1.67;1.47;;;21.00;50.90;;;;;;10537907;28;20208;-15
2021/05/21 00:44:21;;;;;;;1.63;1.50;;;20.90;51.00;;;;;;10537834;28;20219;-15
2021/05/21 00:49:42;;;;;;;1.80;1.63;;;20.90;51.00;;;;;;10536949;28;20250;-15
2021/05/21 00:55:05;;;;;;;1.73;1.63;;;20.90;51.10;;;;;;10535006;28;20195;-15
2021/05/21 01:00:28;;;;;;;2.13;1.57;;;20.80;51.20;;;;;;10538278;28;20234;-15
2021/05/21 01:05:50;;;;;;;1.73;1.60;;;20.80;51.30;;;;;;10535761;28;20196;-14
2021/05/21 01:11:11;;;;;;;2.10;1.60;;;20.90;50.90;;;;;;10535560;28;20210;-15
2021/05/21 01:16:34;;;;;;;2.07;1.53;;;20.90;51.00;;;;;;10535497;28;20256;-15
2021/05/21 01:21:56;;;;;;;1.90;1.60;;;20.90;51.40;;;;;;10536001;28;20211;-15
2021/05/21 01:27:18;;;;;;;1.70;1.60;;;21.00;50.80;;;;;;10535663;28;20584;-16
2021/05/21 01:32:40;;;;;;;2.50;2.00;;;20.90;50.90;;;;;;10534840;28;20223;-13
2021/05/21 01:38:03;;;;;;;2.10;1.60;;;20.90;50.90;;;;;;10535474;28;20215;-16
2021/05/21 01:43:25;;;;;;;2.10;1.90;;;20.90;50.80;;;;;;10534971;28;20239;-15
2021/05/21 01:48:46;;;;;;;2.30;2.03;;;20.90;50.80;;;;;;10535023;28;20195;-15
2021/05/21 01:54:13;;;;;;;2.00;1.80;;;20.90;50.90;;;;;;10534440;28;20599;-13
2021/05/21 01:59:36;;;;;;;2.73;1.80;;;21.00;50.90;;;;;;10536221;28;20226;-14
2021/05/21 02:04:58;;;;;;;1.93;1.60;;;21.00;50.60;;;;;;10536205;28;20199;-17
2021/05/21 02:10:20;;;;;;;2.00;1.80;;;21.00;50.70;;;;;;10531278;28;20211;-15
2021/05/21 02:15:42;;;;;;;1.90;1.70;;;21.00;50.80;;;;;;10492393;28;20600;-15
2021/05/21 02:21:04;;;;;;;2.33;1.70;;;20.90;50.80;;;;;;10493303;28;20262;-15
2021/05/21 02:26:27;;;;;;;1.90;1.70;;;20.90;51.00;;;;;;10491778;28;20193;-15
2021/05/21 02:31:48;;;;;;;1.90;1.70;;;20.90;51.00;;;;;;10493935;28;20216;-17
2021/05/21 02:37:10;;;;;;;1.60;1.50;;;20.80;50.90;;;;;;10492568;28;20684;-16
2021/05/21 02:42:32;;;;;;;2.40;1.87;;;20.80;50.90;;;;;;10492612;28;20680;-15
2021/05/21 02:47:54;;;;;;;1.73;1.60;;;20.80;51.00;;;;;;10492908;28;20184;-15
2021/05/21 02:53:16;;;;;;;2.57;1.80;;;20.90;50.70;;;;;;10521958;28;20220;-15
2021/05/21 02:58:38;;;;;;;2.00;1.80;;;21.00;50.50;;;;;;10532301;28;20215;-16
2021/05/21 03:04:00;;;;;;;2.50;1.67;;;21.00;50.50;;;;;;10534904;28;20219;-15
2021/05/21 03:09:21;;;;;;;2.03;1.73;;;21.00;50.60;;;;;;10536502;28;20191;-16
2021/05/21 03:14:44;;;;;;;1.60;1.50;;;21.00;50.60;;;;;;10541037;28;20297;-16
2021/05/21 03:20:06;;;;;;;1.70;1.60;;;21.00;50.80;;;;;;10540912;28;20708;-15
2021/05/21 03:25:28;;;;;;;1.50;1.40;;;20.90;50.60;;;;;;10540176;28;20244;-14
2021/05/21 03:30:51;;;;;;;1.80;1.70;;;20.90;50.80;;;;;;10554314;22;20219;-14
2021/05/21 03:36:13;;;;;;;1.63;1.53;;;20.90;50.80;;;;;;10526224;28;20199;-14
2021/05/21 03:41:35;;;;;;;1.40;1.30;;;21.00;50.70;;;;;;10520223;28;20216;-17
2021/05/21 03:46:58;;;;;;;1.57;1.47;;;21.00;50.40;;;;;;10498690;28;20196;-14
2021/05/21 03:52:19;;;;;;;1.50;1.40;;;21.00;50.20;;;;;;10513840;28;20216;-13
2021/05/21 03:57:41;;;;;;;1.60;1.40;;;21.00;50.40;;;;;;10516034;28;20591;-15
2021/05/21 04:03:06;;;;;;;2.13;1.40;;;21.10;50.50;;;;;;10506890;28;20295;-13
2021/05/21 04:08:29;;;;;;;1.83;1.70;;;21.00;50.20;;;;;;10497576;28;20197;-15
2021/05/21 04:13:51;;;;;;;1.43;1.33;;;21.00;50.30;;;;;;10510111;28;20293;-15
2021/05/21 04:19:13;;;;;;;2.10;1.53;;;20.90;50.60;;;;;;10496962;28;20223;-16
2021/05/21 04:24:35;;;;;;;1.63;1.40;;;20.90;50.50;;;;;;10507896;28;20262;-15
2021/05/21 04:29:56;;;;;;;1.60;1.33;;;20.90;50.60;;;;;;10539293;28;20576;-15
2021/05/21 04:35:19;;;;;;;1.27;1.17;;;21.00;50.60;;;;;;10537870;28;20592;-14
2021/05/21 04:40:41;;;;;;;1.20;1.10;;;21.00;50.40;;;;;;10538125;28;20733;-14
2021/05/21 04:46:04;;;;;;;1.70;1.30;;;21.00;50.50;;;;;;10537663;28;20606;-14
2021/05/21 04:51:27;;;;;;;1.37;1.27;;;21.00;50.30;;;;;;10516527;28;20375;-14
2021/05/21 04:56:48;;;;;;;1.77;1.10;;;21.00;50.80;;;;;;10536936;28;20195;-14
2021/05/21 05:02:10;;;;;;;1.10;1.00;;;20.90;50.50;;;;;;10522681;28;20212;-14
2021/05/21 05:07:33;;;;;;;1.20;1.07;;;20.90;50.50;;;;;;10493322;28;20232;-14
2021/05/21 05:12:54;;;;;;;2.00;1.20;;;21.00;50.40;;;;;;10494975;28;20217;-14
2021/05/21 05:18:16;;;;;;;1.27;1.17;;;21.00;50.60;;;;;;10495323;28;20208;-14
2021/05/21 05:23:38;;;;;;;1.57;1.20;;;21.00;50.70;;;;;;10494888;28;20281;-14
2021/05/21 05:29:00;;;;;;;1.33;1.13;;;20.90;50.70;;;;;;10494462;28;20188;-14
2021/05/21 05:34:22;;;;;;;1.10;1.00;;;21.00;50.90;;;;;;10491767;28;20232;-14
2021/05/21 05:39:44;;;;;;;1.23;1.13;;;21.00;50.80;;;;;;10494007;28;20600;-14
2021/05/21 05:45:07;;;;;;;2.10;1.17;;;21.00;50.90;;;;;;10492966;28;20262;-14
2021/05/21 05:50:28;;;;;;;1.20;1.10;;;21.00;50.80;;;;;;10496634;28;20199;-16
2021/05/21 05:55:51;;;;;;;1.63;1.10;;;20.90;50.90;;;;;;10495424;28;20200;-15
2021/05/21 06:01:12;;;;;;;1.20;1.00;;;20.90;50.90;;;;;;10492318;28;20224;-15
2021/05/21 06:06:34;;;;;;;0.90;0.90;;;21.00;51.10;;;;;;10508718;28;20626;-15
2021/05/21 06:11:57;;;;;;;1.37;1.00;;;21.00;51.30;;;;;;10492653;28;20212;-13
2021/05/21 06:17:19;;;;;;;0.90;0.90;;;21.00;51.10;;;;;;10496542;28;20228;-14
2021/05/21 06:22:40;;;;;;;1.13;1.03;;;21.00;51.00;;;;;;10525518;28;20222;-15
2021/05/21 06:28:03;;;;;;;2.17;1.10;;;21.20;50.80;;;;;;10497294;28;20185;-15
2021/05/21 06:33:24;;;;;;;1.53;1.13;;;21.20;50.80;;;;;;10492383;28;20224;-16
2021/05/21 06:38:46;;;;;;;0.90;0.90;;;21.00;51.00;;;;;;10492761;28;20208;-15
2021/05/21 06:44:08;;;;;;;0.87;0.83;;;21.00;51.10;;;;;;10497681;28;20219;-15
2021/05/21 06:49:34;;;;;;;2.33;1.10;;;21.10;51.10;;;;;;10542783;28;20222;-15
2021/05/21 06:54:56;;;;;;;3.80;1.30;;;21.10;51.10;;;;;;10516920;28;20300;-15
2021/05/21 07:00:19;;;;;;;2.80;1.00;;;21.10;51.20;;;;;;10499894;28;20223;-15
2021/05/21 07:05:43;;;;;;;2.10;1.00;;;21.10;51.10;;;;;;10500179;28;20664;-15
2021/05/21 07:11:04;;;;;;;2.30;0.90;;;21.20;50.90;;;;;;10500366;28;20739;-15
2021/05/21 07:16:27;;;;;;;1.03;0.87;;;21.30;50.70;;;;;;10500966;28;20196;-15
2021/05/21 07:21:48;;;;;;;2.20;1.10;;;21.30;50.70;;;;;;10500051;28;20644;-15
2021/05/21 07:27:10;;;;;;;3.17;1.10;;;21.30;50.70;;;;;;10497985;28;20192;-15
2021/05/21 07:32:32;;;;;;;3.30;1.27;;;21.20;50.50;;;;;;10499571;28;20592;-15
2021/05/21 07:37:54;;;;;;;1.83;1.07;;;21.20;50.60;;;;;;10499129;28;20961;-15
2021/05/21 07:43:16;;;;;;;2.23;0.83;;;21.30;50.40;;;;;;10498717;28;20270;-15
2021/05/21 07:48:38;;;;;;;1.73;0.63;;;21.20;50.70;;;;;;10497858;28;20618;-15
2021/05/21 07:54:00;;;;;;;1.87;0.90;;;21.20;50.60;;;;;;10516524;28;20216;-15
2021/05/21 07:59:22;;;;;;;3.53;0.80;;;21.20;50.50;;;;;;10538783;28;20722;-13
2021/05/21 08:04:45;;;;;;;1.07;0.77;;;21.20;50.30;;;;;;10501221;28;20227;-15
2021/05/21 08:10:08;;;;;;;1.27;0.60;;;21.20;50.50;;;;;;10498042;28;20185;-16
2021/05/21 08:15:30;;;;;;;3.67;0.93;;;21.20;50.40;;;;;;10497189;28;20196;-15
2021/05/21 08:20:52;;;;;;;1.13;0.70;;;21.30;50.30;;;;;;10513801;28;20224;-15
2021/05/21 08:26:14;;;;;;;2.83;0.93;;;21.10;50.60;;;;;;10496253;28;20196;-15
2021/05/21 08:31:37;;;;;;;2.83;0.90;;;21.20;50.60;;;;;;10496188;28;20220;-15
2021/05/21 08:36:59;;;;;;;2.33;1.07;;;21.10;50.70;;;;;;10509009;28;20196;-15
2021/05/21 08:42:21;;;;;;;2.37;0.70;;;21.10;50.50;;;;;;10495624;28;20216;-15
2021/05/21 08:47:43;;;;;;;3.73;0.83;;;21.10;50.70;;;;;;10495599;28;20204;-15
2021/05/21 08:53:05;;;;;;;2.07;0.77;;;21.20;50.50;;;;;;10535342;28;20573;-15
2021/05/21 08:58:27;;;;;;;3.80;1.10;;;21.30;50.50;;;;;;10518328;28;20213;-15
2021/05/21 09:03:48;;;;;;;1.80;1.10;;;21.20;50.40;;;;;;10522661;28;20216;-15
2021/05/21 09:09:11;;;;;;;2.23;0.87;;;21.30;50.60;;;;;;10536539;28;20195;-16
2021/05/21 09:14:33;;;;;;;2.97;1.07;;;21.30;50.60;;;;;;10534405;28;20720;-15
2021/05/21 09:19:54;;;;;;;4.47;1.00;;;21.30;50.70;;;;;;10535435;28;20211;-13
2021/05/21 09:25:35;;;;;;;2.90;1.13;;;21.20;50.90;;;;;;10535945;28;20202;-15
2021/05/21 09:31:07;;;;;;;2.27;0.90;;;21.20;50.80;;;;;;10546181;22;20219;-14
2021/05/21 09:36:31;;;;;;;1.33;0.70;;;21.20;50.80;;;;;;10484829;28;20208;-16
2021/05/21 09:41:55;;;;;;;2.30;0.80;;;21.20;51.00;;;;;;10464833;28;20233;-15
2021/05/21 09:47:17;;;;;;;1.90;0.70;;;21.20;50.80;;;;;;10438928;28;20220;-15
2021/05/21 09:52:44;;;;;;;3.03;1.13;;;21.40;50.80;;;;;;10435496;28;20224;-15
2021/05/21 09:58:07;;;;;;;2.93;0.93;;;21.30;50.80;;;;;;10411876;28;20264;-15
2021/05/21 10:03:29;;;;;;;3.77;1.20;;;21.40;50.80;;;;;;10436053;28;20224;-15
2021/05/21 10:08:55;;;;;;;4.43;0.90;;;21.30;51.00;;;;;;10430771;28;20247;-15
2021/05/21 10:14:17;;;;;;;3.10;0.90;;;21.30;51.10;;;;;;10410086;28;20271;-16
2021/05/21 10:19:39;;;;;;;1.53;0.87;;;21.20;51.20;;;;;;10409821;28;20210;-16
2021/05/21 10:25:09;;;;;;;2.17;0.80;;;21.30;51.40;;;;;;10431693;28;20700;-16
2021/05/21 10:30:34;;;;;;;2.17;0.97;;;21.20;51.40;;;;;;10450976;28;20767;-15
2021/05/21 10:36:28;;;;;;;2.47;1.00;;;21.20;51.40;;;;;;10410611;28;20221;-16
2021/05/21 10:41:50;;;;;;;6.63;1.10;;;21.30;51.20;;;;;;10408217;28;20217;-16
2021/05/21 10:47:22;;;;;;;3.70;0.70;;;21.30;51.20;;;;;;10430557;28;20201;-16
2021/05/21 10:52:55;;;;;;;3.03;0.60;;;21.30;51.30;;;;;;10431316;28;20212;-16
2021/05/21 10:58:26;;;;;;;2.03;0.87;;;21.30;51.40;;;;;;10409853;28;20256;-17
2021/05/21 11:04:01;;;;;;;2.73;0.70;;;21.30;51.30;;;;;;10439118;28;20307;-14
2021/05/21 11:09:25;;;;;;;2.33;0.90;;;21.30;51.40;;;;;;10403319;28;20193;-15
2021/05/21 11:14:49;;;;;;;1.97;0.80;;;21.30;51.40;;;;;;10404013;28;20217;-15
2021/05/21 11:20:15;;;;;;;2.03;0.77;;;21.30;51.50;;;;;;10402649;28;20214;-13
2021/05/21 11:25:37;;;;;;;1.80;0.87;;;21.30;51.50;;;;;;10417896;28;20221;-16
2021/05/21 11:30:59;;;;;;;2.60;0.80;;;21.20;51.50;;;;;;10438089;28;20566;-16
2021/05/21 11:36:23;;;;;;;3.17;0.77;;;21.30;51.50;;;;;;10447244;28;20219;-15
2021/05/21 11:41:45;;;;;;;1.50;0.80;;;21.20;51.70;;;;;;10407753;28;20292;-15
2021/05/21 11:47:07;;;;;;;3.30;0.90;;;21.20;51.70;;;;;;10409954;28;20205;-15
2021/05/21 11:52:30;;;;;;;1.50;0.50;;;21.30;51.50;;;;;;10410732;28;20236;-15
2021/05/21 11:57:51;;;;;;;1.67;0.80;;;21.30;51.30;;;;;;10409823;28;20272;-15
2021/05/21 12:03:13;;;;;;;3.17;0.90;;;21.30;51.10;;;;;;10433123;28;20608;-15
2021/05/21 12:08:36;;;;;;;1.80;0.70;;;21.40;51.10;;;;;;10449317;28;20624;-15
2021/05/21 12:14:00;;;;;;;1.93;0.73;;;21.30;51.30;;;;;;10449951;28;20228;-16
2021/05/21 12:19:24;;;;;;;1.37;0.60;;;21.30;51.20;;;;;;10433011;28;20216;-16
2021/05/21 12:24:47;;;;;;;1.37;0.70;;;21.30;51.20;;;;;;10423214;28;20330;-15
2021/05/21 12:30:10;;;;;;;5.20;0.80;;;21.20;51.30;;;;;;10432344;28;20232;-15
2021/05/21 12:35:36;;;;;;;3.57;0.90;;;21.10;51.30;;;;;;10425732;28;20252;-15
2021/05/21 12:40:59;;;;;;;3.90;1.00;;;21.20;51.40;;;;;;10422731;28;20227;-15
2021/05/21 12:46:20;;;;;;;3.00;0.70;;;21.30;51.20;;;;;;10411839;28;20247;-15
2021/05/21 12:51:50;;;;;;;1.70;0.90;;;21.30;50.90;;;;;;10408617;28;20221;-16
2021/05/21 12:57:19;;;;;;;1.70;0.70;;;21.30;50.80;;;;;;10436149;28;20205;-15
2021/05/21 13:02:41;;;;;;;2.33;0.80;;;21.30;50.60;;;;;;10428098;28;20217;-15
2021/05/21 13:08:05;;;;;;;2.90;0.80;;;21.40;50.80;;;;;;10406084;28;20794;-15
2021/05/21 13:46:10;;;;;;;4.33;1.10;;;19.80;53.60;;;;;;10433627;27;21081;-14
2021/05/21 13:51:32;;;;;;;3.00;1.20;;;20.40;52.40;;;;;;10390927;28;20217;-13
2021/05/21 13:56:55;;;;;;;2.43;1.10;;;20.30;52.50;;;;;;10365959;28;20222;-14
2021/05/21 14:02:17;;;;;;;3.40;1.40;;;20.50;52.50;;;;;;10381741;28;20201;-14
2021/05/21 14:07:39;;;;;;;2.20;0.90;;;20.60;51.90;;;;;;10376016;28;20197;-13
2021/05/21 14:13:00;;;;;;;2.97;1.10;;;20.70;51.60;;;;;;10396656;28;20222;-12
2021/05/21 14:18:23;;;;;;;4.47;1.10;;;20.80;51.10;;;;;;10396341;28;20197;-15
2021/05/21 14:23:46;;;;;;;4.47;1.37;;;20.80;50.80;;;;;;10354379;28;20248;-12
2021/05/21 14:29:10;;;;;;;4.03;1.10;;;20.90;50.60;;;;;;10356101;28;20225;-13
2021/05/21 14:34:32;;;;;;;3.23;1.10;;;21.00;50.50;;;;;;10383687;28;20210;-14
2021/05/21 14:39:54;;;;;;;6.77;1.20;;;21.10;50.20;;;;;;10435161;28;20199;-11
2021/05/21 14:45:15;;;;;;;3.80;0.97;;;21.20;50.40;;;;;;10390197;28;20223;-14
2021/05/21 14:50:41;;;;;;;6.47;1.10;;;21.30;50.00;;;;;;10330384;28;20199;-15
2021/05/21 14:56:03;;;;;;;5.07;1.30;;;21.40;50.10;;;;;;10410817;28;20211;-15
2021/05/21 15:01:25;;;;;;;4.80;1.00;;;21.40;50.30;;;;;;10409734;28;20202;-15
2021/05/21 15:11:56;;;;;;;5.57;1.00;;;21.60;49.20;;;;;;10465050;28;20311;-15
2021/05/21 15:17:25;;;;;;;1.83;0.80;;;21.70;49.30;;;;;;10455146;28;20283;-14
2021/05/21 15:28:27;;;;;;;3.23;0.90;;;21.70;49.40;;;;;;10452831;28;20761;-14
2021/05/21 15:33:48;;;;;;;6.20;1.23;;;21.50;49.70;;;;;;10450342;28;20213;-14
2021/05/21 15:39:10;;;;;;;7.00;1.20;;;21.60;49.90;;;;;;10412978;28;20637;-15
2021/05/21 15:50:16;;;;;;;4.67;1.10;;;21.50;49.90;;;;;;10425018;28;20278;-14
2021/05/21 15:55:57;;;;;;;5.60;1.20;;;21.50;49.70;;;;;;10433461;28;20265;-14
2021/05/21 16:01:21;;;;;;;3.00;0.80;;;21.40;49.60;;;;;;10451240;28;20250;-14
2021/05/21 16:06:44;;;;;;;5.83;1.23;;;21.60;49.30;;;;;;10455655;28;20632;-14
2021/05/21 16:12:06;;;;;;;3.43;1.10;;;21.60;48.70;;;;;;10453099;28;20264;-14
2021/05/21 16:17:29;;;;;;;3.53;1.13;;;21.60;48.70;;;;;;10452792;28;20847;-14
2021/05/21 16:22:50;;;;;;;3.10;1.10;;;21.70;48.90;;;;;;10455435;28;20200;-14
2021/05/21 16:28:12;;;;;;;3.17;0.90;;;21.70;48.80;;;;;;10450147;28;20213;-14
2021/05/21 16:33:35;;;;;;;6.10;2.23;;;21.60;49.10;;;;;;10439939;28;20213;-14
2021/05/21 16:38:57;;;;;;;5.03;1.67;;;21.20;46.70;;;;;;10430463;28;20213;-15
2021/05/21 16:44:19;;;;;;;3.57;2.00;;;21.00;46.20;;;;;;10446260;28;20193;-15
2021/05/21 16:49:41;;;;;;;6.10;1.93;;;21.00;46.40;;;;;;10452624;28;20221;-14
2021/05/21 16:55:03;;;;;;;6.97;1.83;;;21.00;46.80;;;;;;10453921;28;20224;-15
2021/05/21 17:00:25;;;;;;;5.57;1.57;;;21.10;47.50;;;;;;10452661;28;20217;-15
2021/05/21 17:05:48;;;;;;;7.23;1.90;;;21.30;47.00;;;;;;10451349;28;20197;-15
2021/05/21 17:11:10;;;;;;;5.83;2.13;;;21.30;46.00;;;;;;10450904;28;20220;-14
2021/05/21 17:16:38;;;;;;;4.83;2.00;;;21.20;46.90;;;;;;10450995;28;20335;-16
2021/05/21 17:22:17;;;;;;;6.07;1.80;;;21.30;47.20;;;;;;10451361;28;20191;-15
2021/05/21 17:27:59;;;;;;;5.37;1.60;;;21.30;47.30;;;;;;10447742;28;20212;-15
2021/05/21 17:39:44;;;;;;;5.23;1.70;;;21.20;47.10;;;;;;10440334;28;20272;-14
2021/05/21 17:45:17;;;;;;;5.13;1.37;;;21.00;46.20;;;;;;10461460;28;20204;-15
2021/05/21 17:50:59;;;;;;;9.10;2.00;;;21.00;45.70;;;;;;10454238;28;20269;-13
2021/05/21 18:02:27;;;;;;;6.00;1.40;;;20.90;46.20;;;;;;10450365;28;20819;-13
2021/05/21 18:07:57;;;;;;;5.17;1.57;;;21.00;46.40;;;;;;10449675;28;20225;-15
2021/05/21 18:13:56;;;;;;;4.00;1.60;;;20.90;47.80;;;;;;10449242;28;20217;-15
2021/05/21 18:42:07;;;;;;;3.93;1.70;;;20.10;48.80;;;;;;10434491;28;20219;-15
2021/05/21 18:47:43;;;;;;;2.53;1.47;;;20.10;49.00;;;;;;10457828;28;20212;-15
2021/05/21 18:53:26;;;;;;;2.93;1.67;;;19.90;49.40;;;;;;10456460;28;20223;-16
2021/05/21 19:04:29;;;;;;;4.50;1.87;;;19.70;49.60;;;;;;10450690;28;20221;-14
2021/05/21 19:09:54;;;;;;;3.30;1.57;;;19.60;49.80;;;;;;10439093;28;20247;-14
2021/05/21 19:15:28;;;;;;;3.87;1.50;;;19.50;49.70;;;;;;10455389;28;20748;-14
2021/05/21 19:21:02;;;;;;;4.97;1.57;;;19.60;49.90;;;;;;10437537;28;20571;-15
2021/05/21 19:26:24;;;;;;;5.27;1.90;;;19.70;49.80;;;;;;10407996;28;20198;-15
2021/05/21 19:31:50;;;;;;;6.13;1.83;;;19.30;51.50;;;;;;10425224;28;20749;-15
2021/05/21 19:43:05;;;;;;;3.90;1.60;;;19.00;52.00;;;;;;10434723;28;20616;-16
2021/05/21 19:48:48;;;;;;;4.93;2.00;;;19.10;51.70;;;;;;10448620;28;20213;-15
2021/05/21 20:16:53;;;;;;;4.60;2.00;;;20.00;51.30;;;;;;10425660;28;20204;-13
2021/05/21 20:22:15;;;;;;;3.43;1.60;;;20.10;51.30;;;;;;10453783;28;20193;-15
2021/05/21 20:27:44;;;;;;;5.37;1.80;;;20.20;51.30;;;;;;10454421;28;20217;-13
2021/05/21 20:33:11;;;;;;;2.23;1.33;;;20.30;51.00;;;;;;10449834;28;20268;-13
2021/05/21 20:39:01;;;;;;;4.93;1.80;;;20.40;50.80;;;;;;10452627;28;20205;-15
2021/05/21 20:48:05;;;;;;;3.33;1.43;;;20.40;51.00;;;;;;10452720;28;20583;-14
2021/05/21 21:01:39;;;;;;;1.90;1.50;;;20.50;50.90;;;;;;10453624;28;20201;-15
2021/05/21 21:07:05;;;;;;;2.60;1.43;;;20.50;51.00;;;;;;10451746;28;20760;-15
2021/05/21 21:12:29;;;;;;;3.73;1.63;;;20.50;51.10;;;;;;10481179;22;20225;-14
2021/05/21 21:35:23;;;;;;;2.30;1.20;;;20.60;51.10;;;;;;10532084;28;20219;-13
2021/05/21 21:57:58;;;;;;;3.13;1.10;;;20.80;50.70;;;;;;10541956;28;20571;-13
2021/05/21 22:03:30;;;;;;;2.50;1.40;;;20.70;50.70;;;;;;10562601;28;20224;-15
2021/05/21 22:09:16;;;;;;;1.40;1.07;;;20.80;50.80;;;;;;10580276;28;20233;-15
2021/05/21 22:14:50;;;;;;;1.60;1.10;;;20.80;51.30;;;;;;10371161;28;20248;-15
2021/05/21 22:20:17;;;;;;;2.83;0.97;;;20.80;50.80;;;;;;10541885;28;20248;-15
2021/05/21 22:25:42;;;;;;;1.73;0.97;;;20.80;51.30;;;;;;10542039;28;20231;-15
2021/05/21 22:31:04;;;;;;;1.03;0.90;;;20.80;50.80;;;;;;10541314;28;20215;-16
2021/05/21 22:36:26;;;;;;;2.23;1.13;;;20.80;50.80;;;;;;10541299;28;20244;-15
2021/05/21 22:41:48;;;;;;;1.93;1.20;;;20.80;50.80;;;;;;10541024;28;20220;-15
2021/05/21 22:47:10;;;;;;;2.03;1.30;;;20.70;51.10;;;;;;10539340;28;20191;-15
2021/05/21 22:52:32;;;;;;;1.97;1.07;;;20.80;50.90;;;;;;10541528;28;20606;-15
2021/05/21 22:57:55;;;;;;;2.07;1.10;;;20.80;51.00;;;;;;10537936;28;20253;-16
2021/05/21 23:03:16;;;;;;;1.50;1.23;;;20.70;51.10;;;;;;10540424;28;20698;-14
2021/05/21 23:08:38;;;;;;;1.47;0.80;;;20.90;50.90;;;;;;10538258;28;20552;-15
2021/05/21 23:14:00;;;;;;;2.20;0.83;;;20.90;50.70;;;;;;10537503;28;20269;-15
2021/05/21 23:19:22;;;;;;;0.70;0.70;;;20.90;50.80;;;;;;10535638;28;20553;-16
2021/05/21 23:24:43;;;;;;;1.37;0.80;;;20.80;50.80;;;;;;10540588;28;20611;-15
2021/05/21 23:30:08;;;;;;;1.40;0.90;;;20.90;50.80;;;;;;10540550;28;20207;-15
2021/05/21 23:35:29;;;;;;;2.60;0.90;;;20.90;50.80;;;;;;10539849;28;20273;-13
2021/05/21 23:40:51;;;;;;;1.03;0.70;;;20.80;50.90;;;;;;10527148;28;20200;-15
2021/05/21 23:46:13;;;;;;;1.10;0.93;;;20.90;50.70;;;;;;10327010;28;20196;-14
2021/05/21 23:51:35;;;;;;;1.00;0.70;;;20.90;50.50;;;;;;10323712;28;20222;-15
2021/05/21 23:56:56;;;;;;;1.40;0.90;;;20.90;50.50;;;;;;10330726;28;20195;-16
